sensor_id;sensor_type;location;lat;lon;timestamp;P1;durP1;ratioP1;P2;durP2;ratioP2
22439;SDS011;11387;51.612;7.210;2024-02-04T00:01:26;49.92;;;34.10;;
22439;SDS011;11387;51.612;7.210;2024-02-04T00:03:50;49.75;;;33.03;;
22439;SDS011;11387;51.612;7.210;2024-02-04T00:06:13;49.22;;;33.80;;
22439;SDS011;11387;51.612;7.210;2024-02-04T00:08:37;49.22;;;34.58;;
22439;SDS011;11387;51.612;7.210;2024-02-04T00:11:02;50.38;;;31.90;;
22439;SDS011;11387;51.612;7.210;2024-02-04T00:13:26;43.70;;;32.67;;
22439;SDS011;11387;51.612;7.210;2024-02-04T00:15:51;43.55;;;30.48;;
22439;SDS011;11387;51.612;7.210;2024-02-04T00:18:16;46.35;;;31.63;;
22439;SDS011;11387;51.612;7.210;2024-02-04T00:20:43;43.10;;;30.60;;
22439;SDS011;11387;51.612;7.210;2024-02-04T00:23:06;44.15;;;28.55;;
22439;SDS011;11387;51.612;7.210;2024-02-04T00:25:30;33.97;;;26.90;;
22439;SDS011;11387;51.612;7.210;2024-02-04T00:27:54;36.92;;;26.95;;
22439;SDS011;11387;51.612;7.210;2024-02-04T00:30:17;39.08;;;26.88;;
22439;SDS011;11387;51.612;7.210;2024-02-04T00:32:42;40.15;;;28.85;;
22439;SDS011;11387;51.612;7.210;2024-02-04T00:35:06;40.83;;;26.38;;
22439;SDS011;11387;51.612;7.210;2024-02-04T00:37:29;37.03;;;28.02;;
22439;SDS011;11387;51.612;7.210;2024-02-04T00:39:56;41.00;;;28.25;;
22439;SDS011;11387;51.612;7.210;2024-02-04T00:42:19;35.50;;;27.38;;
22439;SDS011;11387;51.612;7.210;2024-02-04T00:44:43;38.35;;;26.67;;
22439;SDS011;11387;51.612;7.210;2024-02-04T00:47:06;33.30;;;25.63;;
22439;SDS011;11387;51.612;7.210;2024-02-04T00:49:33;36.03;;;24.58;;
22439;SDS011;11387;51.612;7.210;2024-02-04T00:51:59;33.40;;;22.05;;
22439;SDS011;11387;51.612;7.210;2024-02-04T00:54:22;28.50;;;21.25;;
22439;SDS011;11387;51.612;7.210;2024-02-04T00:56:46;29.17;;;22.75;;
22439;SDS011;11387;51.612;7.210;2024-02-04T00:59:09;32.60;;;23.58;;
22439;SDS011;11387;51.612;7.210;2024-02-04T01:01:33;31.02;;;21.48;;
22439;SDS011;11387;51.612;7.210;2024-02-04T01:03:57;34.05;;;24.45;;
22439;SDS011;11387;51.612;7.210;2024-02-04T01:06:22;39.67;;;24.55;;
22439;SDS011;11387;51.612;7.210;2024-02-04T01:08:45;32.75;;;23.90;;
22439;SDS011;11387;51.612;7.210;2024-02-04T01:11:11;33.00;;;22.30;;
22439;SDS011;11387;51.612;7.210;2024-02-04T01:13:34;36.13;;;24.38;;
22439;SDS011;11387;51.612;7.210;2024-02-04T01:15:58;30.42;;;22.45;;
22439;SDS011;11387;51.612;7.210;2024-02-04T01:18:24;29.48;;;21.23;;
22439;SDS011;11387;51.612;7.210;2024-02-04T01:20:47;26.98;;;18.80;;
22439;SDS011;11387;51.612;7.210;2024-02-04T01:23:12;24.75;;;17.58;;
22439;SDS011;11387;51.612;7.210;2024-02-04T01:25:36;22.75;;;16.08;;
22439;SDS011;11387;51.612;7.210;2024-02-04T01:28:05;18.20;;;13.05;;
22439;SDS011;11387;51.612;7.210;2024-02-04T01:30:28;19.98;;;13.63;;
22439;SDS011;11387;51.612;7.210;2024-02-04T01:32:53;14.88;;;10.93;;
22439;SDS011;11387;51.612;7.210;2024-02-04T01:35:17;16.20;;;11.50;;
22439;SDS011;11387;51.612;7.210;2024-02-04T01:37:40;14.95;;;10.50;;
22439;SDS011;11387;51.612;7.210;2024-02-04T01:40:10;16.10;;;11.40;;
22439;SDS011;11387;51.612;7.210;2024-02-04T01:42:34;19.25;;;11.77;;
22439;SDS011;11387;51.612;7.210;2024-02-04T01:45:00;16.05;;;11.23;;
22439;SDS011;11387;51.612;7.210;2024-02-04T01:47:23;16.27;;;11.05;;
22439;SDS011;11387;51.612;7.210;2024-02-04T01:49:47;15.45;;;11.52;;
22439;SDS011;11387;51.612;7.210;2024-02-04T01:52:10;17.35;;;12.18;;
22439;SDS011;11387;51.612;7.210;2024-02-04T01:54:35;16.83;;;12.00;;
22439;SDS011;11387;51.612;7.210;2024-02-04T01:57:02;17.83;;;12.32;;
22439;SDS011;11387;51.612;7.210;2024-02-04T01:59:26;19.85;;;14.20;;
22439;SDS011;11387;51.612;7.210;2024-02-04T02:01:52;18.60;;;13.60;;
22439;SDS011;11387;51.612;7.210;2024-02-04T02:04:16;20.98;;;14.90;;
22439;SDS011;11387;51.612;7.210;2024-02-04T02:06:39;22.45;;;15.27;;
22439;SDS011;11387;51.612;7.210;2024-02-04T02:09:05;25.30;;;17.35;;
22439;SDS011;11387;51.612;7.210;2024-02-04T02:11:32;22.95;;;16.13;;
22439;SDS011;11387;51.612;7.210;2024-02-04T02:14:02;26.15;;;17.95;;
22439;SDS011;11387;51.612;7.210;2024-02-04T02:16:29;26.73;;;16.95;;
22439;SDS011;11387;51.612;7.210;2024-02-04T02:18:56;26.08;;;16.80;;
22439;SDS011;11387;51.612;7.210;2024-02-04T02:21:29;20.70;;;14.82;;
22439;SDS011;11387;51.612;7.210;2024-02-04T02:24:03;20.42;;;13.75;;
22439;SDS011;11387;51.612;7.210;2024-02-04T02:26:35;21.17;;;13.18;;
22439;SDS011;11387;51.612;7.210;2024-02-04T02:29:00;20.10;;;13.85;;
22439;SDS011;11387;51.612;7.210;2024-02-04T02:31:24;25.75;;;13.57;;
22439;SDS011;11387;51.612;7.210;2024-02-04T02:34:05;22.65;;;13.15;;
22439;SDS011;11387;51.612;7.210;2024-02-04T02:36:31;21.58;;;14.57;;
22439;SDS011;11387;51.612;7.210;2024-02-04T02:39:09;21.73;;;13.20;;
22439;SDS011;11387;51.612;7.210;2024-02-04T02:41:40;24.20;;;14.55;;
22439;SDS011;11387;51.612;7.210;2024-02-04T02:44:06;26.75;;;14.90;;
22439;SDS011;11387;51.612;7.210;2024-02-04T02:46:30;25.30;;;14.65;;
22439;SDS011;11387;51.612;7.210;2024-02-04T02:48:55;22.95;;;13.95;;
22439;SDS011;11387;51.612;7.210;2024-02-04T02:51:19;23.02;;;14.52;;
22439;SDS011;11387;51.612;7.210;2024-02-04T02:53:42;27.55;;;15.77;;
22439;SDS011;11387;51.612;7.210;2024-02-04T02:56:06;27.13;;;17.40;;
22439;SDS011;11387;51.612;7.210;2024-02-04T02:58:31;31.30;;;16.33;;
22439;SDS011;11387;51.612;7.210;2024-02-04T03:00:54;35.40;;;20.00;;
22439;SDS011;11387;51.612;7.210;2024-02-04T03:03:18;37.50;;;19.52;;
22439;SDS011;11387;51.612;7.210;2024-02-04T03:05:42;32.22;;;19.35;;
22439;SDS011;11387;51.612;7.210;2024-02-04T03:08:06;42.80;;;21.35;;
22439;SDS011;11387;51.612;7.210;2024-02-04T03:10:29;39.70;;;20.88;;
22439;SDS011;11387;51.612;7.210;2024-02-04T03:12:53;35.45;;;20.27;;
22439;SDS011;11387;51.612;7.210;2024-02-04T03:15:18;36.25;;;21.42;;
22439;SDS011;11387;51.612;7.210;2024-02-04T03:17:42;41.30;;;22.25;;
22439;SDS011;11387;51.612;7.210;2024-02-04T03:20:06;45.92;;;22.75;;
22439;SDS011;11387;51.612;7.210;2024-02-04T03:22:30;42.30;;;21.00;;
22439;SDS011;11387;51.612;7.210;2024-02-04T03:24:54;41.22;;;19.95;;
22439;SDS011;11387;51.612;7.210;2024-02-04T03:27:17;36.30;;;21.40;;
22439;SDS011;11387;51.612;7.210;2024-02-04T03:29:41;38.13;;;20.33;;
22439;SDS011;11387;51.612;7.210;2024-02-04T03:32:06;39.53;;;19.98;;
22439;SDS011;11387;51.612;7.210;2024-02-04T03:34:29;44.35;;;21.73;;
22439;SDS011;11387;51.612;7.210;2024-02-04T03:36:53;40.33;;;21.80;;
22439;SDS011;11387;51.612;7.210;2024-02-04T03:39:17;38.60;;;20.08;;
22439;SDS011;11387;51.612;7.210;2024-02-04T03:41:40;50.10;;;22.05;;
22439;SDS011;11387;51.612;7.210;2024-02-04T03:44:04;44.05;;;21.98;;
22439;SDS011;11387;51.612;7.210;2024-02-04T03:46:27;41.67;;;22.13;;
22439;SDS011;11387;51.612;7.210;2024-02-04T03:48:52;49.10;;;24.38;;
22439;SDS011;11387;51.612;7.210;2024-02-04T03:51:16;55.00;;;24.38;;
22439;SDS011;11387;51.612;7.210;2024-02-04T03:53:41;50.38;;;24.38;;
22439;SDS011;11387;51.612;7.210;2024-02-04T03:56:04;55.58;;;24.65;;
22439;SDS011;11387;51.612;7.210;2024-02-04T03:58:28;56.58;;;26.70;;
22439;SDS011;11387;51.612;7.210;2024-02-04T04:00:52;54.60;;;25.83;;
22439;SDS011;11387;51.612;7.210;2024-02-04T04:03:15;50.28;;;26.02;;
22439;SDS011;11387;51.612;7.210;2024-02-04T04:05:40;56.83;;;26.58;;
22439;SDS011;11387;51.612;7.210;2024-02-04T04:08:04;52.45;;;26.88;;
22439;SDS011;11387;51.612;7.210;2024-02-04T04:10:28;54.70;;;27.17;;
22439;SDS011;11387;51.612;7.210;2024-02-04T04:12:51;53.35;;;26.50;;
22439;SDS011;11387;51.612;7.210;2024-02-04T04:15:15;60.13;;;27.90;;
22439;SDS011;11387;51.612;7.210;2024-02-04T04:17:38;62.58;;;28.27;;
22439;SDS011;11387;51.612;7.210;2024-02-04T04:20:04;56.00;;;28.25;;
22439;SDS011;11387;51.612;7.210;2024-02-04T04:22:30;63.25;;;29.77;;
22439;SDS011;11387;51.612;7.210;2024-02-04T04:24:56;68.85;;;31.10;;
22439;SDS011;11387;51.612;7.210;2024-02-04T04:27:19;58.13;;;32.33;;
22439;SDS011;11387;51.612;7.210;2024-02-04T04:29:43;58.88;;;32.95;;
22439;SDS011;11387;51.612;7.210;2024-02-04T04:32:06;61.83;;;33.50;;
22439;SDS011;11387;51.612;7.210;2024-02-04T04:34:29;62.92;;;33.47;;
22439;SDS011;11387;51.612;7.210;2024-02-04T04:36:53;62.20;;;33.85;;
22439;SDS011;11387;51.612;7.210;2024-02-04T04:39:18;54.53;;;31.95;;
22439;SDS011;11387;51.612;7.210;2024-02-04T04:41:43;63.83;;;34.03;;
22439;SDS011;11387;51.612;7.210;2024-02-04T04:44:07;65.72;;;35.25;;
22439;SDS011;11387;51.612;7.210;2024-02-04T04:46:31;55.70;;;31.55;;
22439;SDS011;11387;51.612;7.210;2024-02-04T04:48:54;58.67;;;31.02;;
22439;SDS011;11387;51.612;7.210;2024-02-04T04:51:20;58.33;;;32.08;;
22439;SDS011;11387;51.612;7.210;2024-02-04T04:53:44;56.60;;;30.20;;
22439;SDS011;11387;51.612;7.210;2024-02-04T04:56:08;60.95;;;30.83;;
22439;SDS011;11387;51.612;7.210;2024-02-04T04:58:32;53.80;;;30.05;;
22439;SDS011;11387;51.612;7.210;2024-02-04T05:00:55;61.90;;;29.67;;
22439;SDS011;11387;51.612;7.210;2024-02-04T05:03:33;52.60;;;29.43;;
22439;SDS011;11387;51.612;7.210;2024-02-04T05:05:57;61.17;;;30.25;;
22439;SDS011;11387;51.612;7.210;2024-02-04T05:08:20;55.38;;;30.25;;
22439;SDS011;11387;51.612;7.210;2024-02-04T05:10:44;57.15;;;29.58;;
22439;SDS011;11387;51.612;7.210;2024-02-04T05:13:08;57.72;;;31.08;;
22439;SDS011;11387;51.612;7.210;2024-02-04T05:15:32;55.70;;;30.27;;
22439;SDS011;11387;51.612;7.210;2024-02-04T05:17:56;50.70;;;29.25;;
22439;SDS011;11387;51.612;7.210;2024-02-04T05:20:20;58.38;;;29.00;;
22439;SDS011;11387;51.612;7.210;2024-02-04T05:22:43;58.38;;;28.67;;
22439;SDS011;11387;51.612;7.210;2024-02-04T05:25:07;56.65;;;27.23;;
22439;SDS011;11387;51.612;7.210;2024-02-04T05:27:31;56.47;;;30.08;;
22439;SDS011;11387;51.612;7.210;2024-02-04T05:29:56;47.97;;;27.40;;
22439;SDS011;11387;51.612;7.210;2024-02-04T05:32:19;65.15;;;31.25;;
22439;SDS011;11387;51.612;7.210;2024-02-04T05:34:43;57.63;;;30.27;;
22439;SDS011;11387;51.612;7.210;2024-02-04T05:37:06;55.45;;;31.08;;
22439;SDS011;11387;51.612;7.210;2024-02-04T05:39:30;64.10;;;31.88;;
22439;SDS011;11387;51.612;7.210;2024-02-04T05:41:54;68.63;;;32.10;;
22439;SDS011;11387;51.612;7.210;2024-02-04T05:44:17;62.17;;;31.45;;
22439;SDS011;11387;51.612;7.210;2024-02-04T05:46:42;68.55;;;32.63;;
22439;SDS011;11387;51.612;7.210;2024-02-04T05:49:05;66.78;;;32.85;;
22439;SDS011;11387;51.612;7.210;2024-02-04T05:51:31;67.75;;;32.15;;
22439;SDS011;11387;51.612;7.210;2024-02-04T05:53:56;69.40;;;32.90;;
22439;SDS011;11387;51.612;7.210;2024-02-04T05:56:19;77.32;;;34.83;;
22439;SDS011;11387;51.612;7.210;2024-02-04T05:58:43;72.85;;;34.65;;
22439;SDS011;11387;51.612;7.210;2024-02-04T06:01:07;71.53;;;33.40;;
22439;SDS011;11387;51.612;7.210;2024-02-04T06:03:32;64.90;;;31.80;;
22439;SDS011;11387;51.612;7.210;2024-02-04T06:05:56;65.95;;;31.90;;
22439;SDS011;11387;51.612;7.210;2024-02-04T06:08:19;68.70;;;31.65;;
22439;SDS011;11387;51.612;7.210;2024-02-04T06:10:43;52.10;;;31.17;;
22439;SDS011;11387;51.612;7.210;2024-02-04T06:13:06;60.03;;;30.00;;
22439;SDS011;11387;51.612;7.210;2024-02-04T06:15:30;67.72;;;30.23;;
22439;SDS011;11387;51.612;7.210;2024-02-04T06:17:53;54.10;;;28.60;;
22439;SDS011;11387;51.612;7.210;2024-02-04T06:20:18;57.65;;;29.15;;
22439;SDS011;11387;51.612;7.210;2024-02-04T06:22:44;55.10;;;29.13;;
22439;SDS011;11387;51.612;7.210;2024-02-04T06:25:08;64.18;;;30.55;;
22439;SDS011;11387;51.612;7.210;2024-02-04T06:27:32;56.08;;;27.90;;
22439;SDS011;11387;51.612;7.210;2024-02-04T06:29:56;59.22;;;28.55;;
22439;SDS011;11387;51.612;7.210;2024-02-04T06:32:19;57.10;;;28.00;;
22439;SDS011;11387;51.612;7.210;2024-02-04T06:34:43;52.47;;;26.52;;
22439;SDS011;11387;51.612;7.210;2024-02-04T06:37:08;41.28;;;23.23;;
22439;SDS011;11387;51.612;7.210;2024-02-04T06:39:31;52.92;;;26.83;;
22439;SDS011;11387;51.612;7.210;2024-02-04T06:41:55;47.10;;;25.23;;
22439;SDS011;11387;51.612;7.210;2024-02-04T06:44:18;58.40;;;25.85;;
22439;SDS011;11387;51.612;7.210;2024-02-04T06:46:42;51.55;;;25.25;;
22439;SDS011;11387;51.612;7.210;2024-02-04T06:49:05;50.63;;;24.95;;
22439;SDS011;11387;51.612;7.210;2024-02-04T06:51:29;47.67;;;23.92;;
22439;SDS011;11387;51.612;7.210;2024-02-04T06:53:54;48.13;;;24.20;;
22439;SDS011;11387;51.612;7.210;2024-02-04T06:56:18;50.17;;;25.08;;
22439;SDS011;11387;51.612;7.210;2024-02-04T06:58:41;49.65;;;25.48;;
22439;SDS011;11387;51.612;7.210;2024-02-04T07:01:06;43.22;;;26.33;;
22439;SDS011;11387;51.612;7.210;2024-02-04T07:03:29;53.40;;;26.63;;
22439;SDS011;11387;51.612;7.210;2024-02-04T07:05:53;39.97;;;23.50;;
22439;SDS011;11387;51.612;7.210;2024-02-04T07:08:16;49.40;;;26.52;;
22439;SDS011;11387;51.612;7.210;2024-02-04T07:10:41;44.40;;;27.25;;
22439;SDS011;11387;51.612;7.210;2024-02-04T07:13:04;47.05;;;26.25;;
22439;SDS011;11387;51.612;7.210;2024-02-04T07:15:29;48.83;;;25.98;;
22439;SDS011;11387;51.612;7.210;2024-02-04T07:17:52;51.40;;;26.52;;
22439;SDS011;11387;51.612;7.210;2024-02-04T07:20:16;50.00;;;25.23;;
22439;SDS011;11387;51.612;7.210;2024-02-04T07:22:39;49.47;;;26.70;;
22439;SDS011;11387;51.612;7.210;2024-02-04T07:25:03;45.35;;;25.60;;
22439;SDS011;11387;51.612;7.210;2024-02-04T07:27:29;43.55;;;26.55;;
22439;SDS011;11387;51.612;7.210;2024-02-04T07:29:53;46.17;;;25.02;;
22439;SDS011;11387;51.612;7.210;2024-02-04T07:32:16;44.92;;;25.48;;
22439;SDS011;11387;51.612;7.210;2024-02-04T07:34:40;43.45;;;25.45;;
22439;SDS011;11387;51.612;7.210;2024-02-04T07:37:04;46.30;;;26.23;;
22439;SDS011;11387;51.612;7.210;2024-02-04T07:39:28;42.33;;;24.50;;
22439;SDS011;11387;51.612;7.210;2024-02-04T07:41:52;40.80;;;24.42;;
22439;SDS011;11387;51.612;7.210;2024-02-04T07:44:20;49.20;;;25.50;;
22439;SDS011;11387;51.612;7.210;2024-02-04T07:46:43;39.72;;;23.38;;
22439;SDS011;11387;51.612;7.210;2024-02-04T07:49:07;47.60;;;25.77;;
22439;SDS011;11387;51.612;7.210;2024-02-04T07:51:30;44.50;;;24.02;;
22439;SDS011;11387;51.612;7.210;2024-02-04T07:53:54;43.83;;;24.23;;
22439;SDS011;11387;51.612;7.210;2024-02-04T07:56:17;41.55;;;23.92;;
22439;SDS011;11387;51.612;7.210;2024-02-04T07:58:41;44.00;;;25.30;;
22439;SDS011;11387;51.612;7.210;2024-02-04T08:01:06;46.08;;;24.73;;
22439;SDS011;11387;51.612;7.210;2024-02-04T08:03:29;44.22;;;24.40;;
22439;SDS011;11387;51.612;7.210;2024-02-04T08:05:54;42.55;;;23.58;;
22439;SDS011;11387;51.612;7.210;2024-02-04T08:08:17;42.05;;;24.75;;
22439;SDS011;11387;51.612;7.210;2024-02-04T08:10:41;42.92;;;24.73;;
22439;SDS011;11387;51.612;7.210;2024-02-04T08:13:05;45.05;;;22.92;;
22439;SDS011;11387;51.612;7.210;2024-02-04T08:15:28;43.33;;;23.00;;
22439;SDS011;11387;51.612;7.210;2024-02-04T08:17:53;40.58;;;22.05;;
22439;SDS011;11387;51.612;7.210;2024-02-04T08:20:17;35.35;;;20.73;;
22439;SDS011;11387;51.612;7.210;2024-02-04T08:22:41;43.25;;;23.00;;
22439;SDS011;11387;51.612;7.210;2024-02-04T08:25:05;40.38;;;21.20;;
22439;SDS011;11387;51.612;7.210;2024-02-04T08:27:29;37.30;;;20.58;;
22439;SDS011;11387;51.612;7.210;2024-02-04T08:29:52;34.30;;;18.52;;
22439;SDS011;11387;51.612;7.210;2024-02-04T08:32:16;29.48;;;16.98;;
22439;SDS011;11387;51.612;7.210;2024-02-04T08:34:41;33.95;;;17.90;;
22439;SDS011;11387;51.612;7.210;2024-02-04T08:37:06;30.60;;;16.55;;
22439;SDS011;11387;51.612;7.210;2024-02-04T08:39:30;25.35;;;16.17;;
22439;SDS011;11387;51.612;7.210;2024-02-04T08:41:53;27.35;;;16.10;;
22439;SDS011;11387;51.612;7.210;2024-02-04T08:44:17;32.55;;;16.00;;
22439;SDS011;11387;51.612;7.210;2024-02-04T08:46:56;26.92;;;15.88;;
22439;SDS011;11387;51.612;7.210;2024-02-04T08:49:20;26.40;;;15.52;;
22439;SDS011;11387;51.612;7.210;2024-02-04T08:51:45;16.17;;;10.88;;
22439;SDS011;11387;51.612;7.210;2024-02-04T08:54:09;20.25;;;11.90;;
22439;SDS011;11387;51.612;7.210;2024-02-04T08:56:33;19.73;;;12.45;;
22439;SDS011;11387;51.612;7.210;2024-02-04T08:58:57;24.30;;;11.73;;
22439;SDS011;11387;51.612;7.210;2024-02-04T09:01:21;23.02;;;11.13;;
22439;SDS011;11387;51.612;7.210;2024-02-04T09:03:45;19.98;;;10.80;;
22439;SDS011;11387;51.612;7.210;2024-02-04T09:06:09;19.75;;;9.93;;
22439;SDS011;11387;51.612;7.210;2024-02-04T09:08:33;17.65;;;9.60;;
22439;SDS011;11387;51.612;7.210;2024-02-04T09:10:57;14.93;;;7.95;;
22439;SDS011;11387;51.612;7.210;2024-02-04T09:13:21;18.08;;;7.93;;
22439;SDS011;11387;51.612;7.210;2024-02-04T09:15:44;11.02;;;7.40;;
22439;SDS011;11387;51.612;7.210;2024-02-04T09:18:08;9.43;;;6.65;;
22439;SDS011;11387;51.612;7.210;2024-02-04T09:20:31;9.77;;;7.03;;
22439;SDS011;11387;51.612;7.210;2024-02-04T09:22:55;9.13;;;5.68;;
22439;SDS011;11387;51.612;7.210;2024-02-04T09:25:21;10.60;;;6.43;;
22439;SDS011;11387;51.612;7.210;2024-02-04T09:27:44;15.55;;;5.75;;
22439;SDS011;11387;51.612;7.210;2024-02-04T09:30:08;9.77;;;5.25;;
22439;SDS011;11387;51.612;7.210;2024-02-04T09:32:34;10.70;;;4.93;;
22439;SDS011;11387;51.612;7.210;2024-02-04T09:34:58;8.68;;;5.00;;
22439;SDS011;11387;51.612;7.210;2024-02-04T09:37:24;8.77;;;5.38;;
22439;SDS011;11387;51.612;7.210;2024-02-04T09:39:48;5.93;;;4.50;;
22439;SDS011;11387;51.612;7.210;2024-02-04T09:42:18;13.82;;;5.88;;
22439;SDS011;11387;51.612;7.210;2024-02-04T09:44:46;12.13;;;4.85;;
22439;SDS011;11387;51.612;7.210;2024-02-04T09:47:10;17.63;;;5.63;;
22439;SDS011;11387;51.612;7.210;2024-02-04T09:49:36;7.50;;;4.93;;
22439;SDS011;11387;51.612;7.210;2024-02-04T09:51:59;8.48;;;4.85;;
22439;SDS011;11387;51.612;7.210;2024-02-04T09:54:30;11.15;;;4.75;;
22439;SDS011;11387;51.612;7.210;2024-02-04T09:56:56;13.02;;;4.88;;
22439;SDS011;11387;51.612;7.210;2024-02-04T09:59:25;8.98;;;4.75;;
22439;SDS011;11387;51.612;7.210;2024-02-04T10:01:48;11.82;;;4.55;;
22439;SDS011;11387;51.612;7.210;2024-02-04T10:04:13;9.00;;;4.90;;
22439;SDS011;11387;51.612;7.210;2024-02-04T10:06:37;10.07;;;5.68;;
22439;SDS011;11387;51.612;7.210;2024-02-04T10:09:04;11.27;;;4.82;;
22439;SDS011;11387;51.612;7.210;2024-02-04T10:11:28;12.50;;;5.22;;
22439;SDS011;11387;51.612;7.210;2024-02-04T10:13:54;8.13;;;4.50;;
22439;SDS011;11387;51.612;7.210;2024-02-04T10:16:19;9.93;;;4.75;;
22439;SDS011;11387;51.612;7.210;2024-02-04T10:18:43;12.75;;;6.00;;
22439;SDS011;11387;51.612;7.210;2024-02-04T10:21:17;12.63;;;4.82;;
22439;SDS011;11387;51.612;7.210;2024-02-04T10:23:42;6.90;;;4.90;;
22439;SDS011;11387;51.612;7.210;2024-02-04T10:26:06;10.05;;;5.15;;
22439;SDS011;11387;51.612;7.210;2024-02-04T10:28:30;9.13;;;5.40;;
22439;SDS011;11387;51.612;7.210;2024-02-04T10:30:54;9.32;;;6.03;;
22439;SDS011;11387;51.612;7.210;2024-02-04T10:33:19;14.10;;;6.95;;
22439;SDS011;11387;51.612;7.210;2024-02-04T10:35:46;10.93;;;6.55;;
22439;SDS011;11387;51.612;7.210;2024-02-04T10:38:10;12.68;;;8.27;;
22439;SDS011;11387;51.612;7.210;2024-02-04T10:40:33;13.57;;;8.30;;
22439;SDS011;11387;51.612;7.210;2024-02-04T10:43:01;17.52;;;10.57;;
22439;SDS011;11387;51.612;7.210;2024-02-04T10:45:28;21.33;;;11.63;;
22439;SDS011;11387;51.612;7.210;2024-02-04T10:47:56;28.08;;;14.57;;
22439;SDS011;11387;51.612;7.210;2024-02-04T10:50:25;25.17;;;16.35;;
22439;SDS011;11387;51.612;7.210;2024-02-04T10:52:51;29.30;;;17.90;;
22439;SDS011;11387;51.612;7.210;2024-02-04T10:55:16;26.92;;;16.15;;
22439;SDS011;11387;51.612;7.210;2024-02-04T10:57:43;30.55;;;16.83;;
22439;SDS011;11387;51.612;7.210;2024-02-04T11:00:08;28.77;;;15.32;;
22439;SDS011;11387;51.612;7.210;2024-02-04T11:02:35;26.10;;;13.50;;
22439;SDS011;11387;51.612;7.210;2024-02-04T11:04:59;18.70;;;11.32;;
22439;SDS011;11387;51.612;7.210;2024-02-04T11:07:27;17.25;;;11.25;;
22439;SDS011;11387;51.612;7.210;2024-02-04T11:09:54;21.67;;;12.27;;
22439;SDS011;11387;51.612;7.210;2024-02-04T11:12:43;19.17;;;12.10;;
22439;SDS011;11387;51.612;7.210;2024-02-04T11:15:09;14.18;;;10.02;;
22439;SDS011;11387;51.612;7.210;2024-02-04T11:17:54;18.35;;;10.75;;
22439;SDS011;11387;51.612;7.210;2024-02-04T11:20:46;16.55;;;10.90;;
22439;SDS011;11387;51.612;7.210;2024-02-04T11:23:31;18.20;;;11.20;;
22439;SDS011;11387;51.612;7.210;2024-02-04T11:26:05;20.17;;;11.20;;
22439;SDS011;11387;51.612;7.210;2024-02-04T11:28:29;17.90;;;9.88;;
22439;SDS011;11387;51.612;7.210;2024-02-04T11:30:54;18.60;;;10.13;;
22439;SDS011;11387;51.612;7.210;2024-02-04T11:33:21;16.27;;;10.52;;
22439;SDS011;11387;51.612;7.210;2024-02-04T11:35:46;17.23;;;10.40;;
22439;SDS011;11387;51.612;7.210;2024-02-04T11:38:13;17.85;;;10.25;;
22439;SDS011;11387;51.612;7.210;2024-02-04T11:40:42;23.73;;;11.18;;
22439;SDS011;11387;51.612;7.210;2024-02-04T11:43:07;15.55;;;10.55;;
22439;SDS011;11387;51.612;7.210;2024-02-04T11:45:37;18.35;;;10.05;;
22439;SDS011;11387;51.612;7.210;2024-02-04T11:48:02;11.10;;;7.80;;
22439;SDS011;11387;51.612;7.210;2024-02-04T11:50:29;9.70;;;5.80;;
22439;SDS011;11387;51.612;7.210;2024-02-04T11:53:01;7.65;;;4.82;;
22439;SDS011;11387;51.612;7.210;2024-02-04T11:55:27;8.30;;;4.18;;
22439;SDS011;11387;51.612;7.210;2024-02-04T11:57:55;6.93;;;4.10;;
22439;SDS011;11387;51.612;7.210;2024-02-04T12:00:19;6.10;;;3.50;;
22439;SDS011;11387;51.612;7.210;2024-02-04T12:02:44;6.05;;;3.17;;
22439;SDS011;11387;51.612;7.210;2024-02-04T12:05:07;5.65;;;3.00;;
22439;SDS011;11387;51.612;7.210;2024-02-04T12:07:32;5.70;;;3.30;;
22439;SDS011;11387;51.612;7.210;2024-02-04T12:09:56;5.57;;;3.38;;
22439;SDS011;11387;51.612;7.210;2024-02-04T12:12:22;6.32;;;3.35;;
22439;SDS011;11387;51.612;7.210;2024-02-04T12:14:48;7.78;;;4.40;;
22439;SDS011;11387;51.612;7.210;2024-02-04T12:17:17;9.32;;;4.80;;
22439;SDS011;11387;51.612;7.210;2024-02-04T12:19:45;7.00;;;5.57;;
22439;SDS011;11387;51.612;7.210;2024-02-04T12:22:09;9.57;;;7.43;;
22439;SDS011;11387;51.612;7.210;2024-02-04T12:24:34;10.35;;;6.22;;
22439;SDS011;11387;51.612;7.210;2024-02-04T12:26:57;10.07;;;7.00;;
22439;SDS011;11387;51.612;7.210;2024-02-04T12:29:24;9.43;;;6.90;;
22439;SDS011;11387;51.612;7.210;2024-02-04T12:31:57;9.07;;;6.22;;
22439;SDS011;11387;51.612;7.210;2024-02-04T12:34:24;11.57;;;7.07;;
22439;SDS011;11387;51.612;7.210;2024-02-04T12:36:56;8.48;;;5.82;;
22439;SDS011;11387;51.612;7.210;2024-02-04T12:39:22;9.93;;;5.93;;
22439;SDS011;11387;51.612;7.210;2024-02-04T12:41:50;13.02;;;6.25;;
22439;SDS011;11387;51.612;7.210;2024-02-04T12:44:26;9.57;;;6.70;;
22439;SDS011;11387;51.612;7.210;2024-02-04T12:46:51;10.48;;;6.93;;
22439;SDS011;11387;51.612;7.210;2024-02-04T12:49:17;10.68;;;6.07;;
22439;SDS011;11387;51.612;7.210;2024-02-04T12:51:45;9.50;;;6.03;;
22439;SDS011;11387;51.612;7.210;2024-02-04T12:54:09;9.55;;;6.78;;
22439;SDS011;11387;51.612;7.210;2024-02-04T12:56:43;11.60;;;6.82;;
22439;SDS011;11387;51.612;7.210;2024-02-04T12:59:08;9.68;;;7.25;;
22439;SDS011;11387;51.612;7.210;2024-02-04T13:01:35;11.25;;;7.18;;
22439;SDS011;11387;51.612;7.210;2024-02-04T13:04:01;11.43;;;7.72;;
22439;SDS011;11387;51.612;7.210;2024-02-04T13:06:25;10.55;;;6.32;;
22439;SDS011;11387;51.612;7.210;2024-02-04T13:08:53;7.85;;;6.10;;
22439;SDS011;11387;51.612;7.210;2024-02-04T13:11:19;8.30;;;6.00;;
22439;SDS011;11387;51.612;7.210;2024-02-04T13:13:44;8.25;;;5.97;;
22439;SDS011;11387;51.612;7.210;2024-02-04T13:16:07;11.73;;;6.07;;
22439;SDS011;11387;51.612;7.210;2024-02-04T13:18:31;8.75;;;5.75;;
22439;SDS011;11387;51.612;7.210;2024-02-04T13:20:56;8.48;;;5.25;;
22439;SDS011;11387;51.612;7.210;2024-02-04T13:23:20;7.88;;;5.78;;
22439;SDS011;11387;51.612;7.210;2024-02-04T13:25:43;9.82;;;5.60;;
22439;SDS011;11387;51.612;7.210;2024-02-04T13:28:07;6.65;;;4.95;;
22439;SDS011;11387;51.612;7.210;2024-02-04T13:30:31;8.10;;;5.55;;
22439;SDS011;11387;51.612;7.210;2024-02-04T13:32:58;10.02;;;6.75;;
22439;SDS011;11387;51.612;7.210;2024-02-04T13:35:24;9.35;;;7.15;;
22439;SDS011;11387;51.612;7.210;2024-02-04T13:37:50;10.18;;;7.18;;
22439;SDS011;11387;51.612;7.210;2024-02-04T13:40:17;10.88;;;8.77;;
22439;SDS011;11387;51.612;7.210;2024-02-04T13:42:42;11.05;;;7.68;;
22439;SDS011;11387;51.612;7.210;2024-02-04T13:45:09;12.83;;;9.23;;
22439;SDS011;11387;51.612;7.210;2024-02-04T13:47:32;12.32;;;8.45;;
22439;SDS011;11387;51.612;7.210;2024-02-04T13:49:56;16.73;;;8.40;;
22439;SDS011;11387;51.612;7.210;2024-02-04T13:52:22;11.73;;;8.13;;
22439;SDS011;11387;51.612;7.210;2024-02-04T13:54:52;10.65;;;7.50;;
22439;SDS011;11387;51.612;7.210;2024-02-04T13:57:16;10.55;;;7.18;;
22439;SDS011;11387;51.612;7.210;2024-02-04T13:59:39;10.63;;;7.60;;
22439;SDS011;11387;51.612;7.210;2024-02-04T14:02:03;9.23;;;6.95;;
22439;SDS011;11387;51.612;7.210;2024-02-04T14:04:27;10.20;;;7.30;;
22439;SDS011;11387;51.612;7.210;2024-02-04T14:06:52;11.27;;;8.35;;
22439;SDS011;11387;51.612;7.210;2024-02-04T14:09:18;13.23;;;7.65;;
22439;SDS011;11387;51.612;7.210;2024-02-04T14:11:43;11.50;;;7.40;;
22439;SDS011;11387;51.612;7.210;2024-02-04T14:14:07;11.98;;;8.02;;